Time;durP1;ratioP1;P1;durP2;ratioP2;P2;SDS_P1;SDS_P2;PMS_P1;PMS_P2;Temp;Humidity;BMP_temperature;BMP_pressure;BME280_temperature;BME280_humidity;BME280_pressure;Samples;Min_cycle;Max_cycle;Signal;HPM_P1;HPM_P2
2022/01/26 00:07:37;;;;;;;;;;;;;;;;;;5009777;28;20148;-72
2022/01/26 00:10:04;;;;;;;;;;;;;;;;;;4999594;28;19930;-72
2022/01/26 00:12:31;;;;;;;;;;;;;;;;;;5009692;28;20407;-73
2022/01/26 00:14:58;;;;;;;;;;;;;;;;;;5002154;28;19925;-72
2022/01/26 00:17:24;;;;;;;;;;;;;;;;;;5004899;28;19945;-72
2022/01/26 00:19:57;;;;;;;;;;;;;;;;;;5007274;28;20011;-71
2022/01/26 00:22:41;;;;;;;;;;;;;;;;;;5003026;28;19937;-72
2022/01/26 00:25:23;;;;;;;;;;;;;;;;;;5002990;28;19926;-71
2022/01/26 00:27:53;;;;;;;;;;;;;;;;;;5003172;28;19968;-71
2022/01/26 00:38:37;;;;;;;;;;;;;;;;;;5008730;28;19975;-72
2022/01/26 00:41:07;;;;;;;;;;;;;;;;;;5005900;28;19944;-71
2022/01/26 00:43:34;;;;;;;;;;;;;;;;;;5008536;28;20411;-72
2022/01/26 00:46:02;;;;;;;;;;;;;;;;;;5003280;28;19930;-72
2022/01/26 00:48:31;;;;;;;;;;;;;;;;;;5008965;28;20380;-71
2022/01/26 00:51:00;;;;;;;;;;;;;;;;;;5007518;28;19932;-71
2022/01/26 00:53:32;;;;;;;;;;;;;;;;;;5012080;28;19926;-71
2022/01/26 00:55:59;;;;;;;;;;;;;;;;;;5008322;28;19925;-71
2022/01/26 00:58:26;;;;;;;;;;;;;;;;;;5005559;28;19925;-71
2022/01/26 01:00:53;;;;;;;;;;;;;;;;;;5001410;28;19934;-71
2022/01/26 01:03:21;;;;;;;;;;;;;;;;;;5004517;28;20009;-70
2022/01/26 01:05:54;;;;;;;;;;;;;;;;;;5008014;28;20376;-72
2022/01/26 01:08:23;;;;;;;;;;;;;;;;;;4999120;28;20268;-71
2022/01/26 01:10:51;;;;;;;;;;;;;;;;;;5003701;28;19926;-72
2022/01/26 01:13:20;;;;;;;;;;;;;;;;;;5011203;28;20758;-72
2022/01/26 01:15:47;;;;;;;;;;;;;;;;;;5005975;28;19972;-71
2022/01/26 01:18:20;;;;;;;;;;;;;;;;;;5009509;28;19972;-71
2022/01/26 01:24:06;;;;;;;;;;;;;;;;;;5004247;28;19921;-72
2022/01/26 01:26:50;;;;;;;;;;;;;;;;;;5002291;28;19936;-72
2022/01/26 01:29:21;;;;;;;;;;;;;;;;;;5016066;22;20342;-68
2022/01/26 01:31:51;;;;;;;;;;;;;;;;;;4999913;28;19926;-68
2022/01/26 01:34:18;;;;;;;;;;;;;;;;;;5003966;28;20024;-68
2022/01/26 01:36:48;;;;;;;;;;;;;;;;;;5002595;28;19937;-68
2022/01/26 01:39:15;;;;;;;;;;;;;;;;;;4993889;28;19930;-68
2022/01/26 01:41:42;;;;;;;;;;;;;;;;;;4987467;28;20017;-67
2022/01/26 01:44:09;;;;;;;;;;;;;;;;;;4984153;28;19926;-68
2022/01/26 01:46:37;;;;;;;;;;;;;;;;;;4988344;28;19966;-68
2022/01/26 01:49:04;;;;;;;;;;;;;;;;;;4989219;28;19926;-68
2022/01/26 01:51:35;;;;;;;;;;;;;;;;;;4989916;28;19977;-68
2022/01/26 01:54:02;;;;;;;;;;;;;;;;;;4984949;28;20036;-68
2022/01/26 01:56:29;;;;;;;;;;;;;;;;;;4985516;28;19926;-68
2022/01/26 01:58:57;;;;;;;;;;;;;;;;;;4987270;28;20027;-68
2022/01/26 02:01:24;;;;;;;;;;;;;;;;;;4985307;28;20432;-68
2022/01/26 02:03:51;;;;;;;;;;;;;;;;;;4991397;28;19926;-68
2022/01/26 02:06:18;;;;;;;;;;;;;;;;;;4988973;28;20041;-67
2022/01/26 02:08:45;;;;;;;;;;;;;;;;;;4986288;28;20404;-68
2022/01/26 02:11:13;;;;;;;;;;;;;;;;;;4984278;28;20001;-67
2022/01/26 02:13:48;;;;;;;;;;;;;;;;;;4984778;28;20410;-67
2022/01/26 02:16:23;;;;;;;;;;;;;;;;;;4986736;28;20218;-67
2022/01/26 02:19:18;;;;;;;;;;;;;;;;;;4993907;28;19926;-66
2022/01/26 02:55:08;;;;;;;;;;;;;;;;;;4975156;28;19928;-67
2022/01/26 02:57:47;;;;;;;;;;;;;;;;;;4984102;28;19946;-67
2022/01/26 03:00:25;;;;;;;;;;;;;;;;;;4989310;28;20407;-67
2022/01/26 03:02:57;;;;;;;;;;;;;;;;;;4990109;28;20008;-67
2022/01/26 03:05:33;;;;;;;;;;;;;;;;;;4992371;28;20207;-67
2022/01/26 03:08:04;;;;;;;;;;;;;;;;;;4988855;28;19973;-67
2022/01/26 03:10:35;;;;;;;;;;;;;;;;;;4988822;28;19926;-68
2022/01/26 03:13:06;;;;;;;;;;;;;;;;;;4993684;28;19925;-68
2022/01/26 03:15:38;;;;;;;;;;;;;;;;;;4985379;28;19926;-68
2022/01/26 03:20:52;;;;;;;;;;;;;;;;;;4993923;28;20382;-68
2022/01/26 03:29:09;;;;;;;;;;;;;;;;;;4985389;28;19928;-67
2022/01/26 03:34:32;;;;;;;;;;;;;;;;;;4988757;28;19980;-67
2022/01/26 03:37:03;;;;;;;;;;;;;;;;;;4995543;28;19948;-67
2022/01/26 03:39:39;;;;;;;;;;;;;;;;;;4987369;28;20392;-67
2022/01/26 03:42:07;;;;;;;;;;;;;;;;;;4989223;28;19938;-67
2022/01/26 03:44:34;;;;;;;;;;;;;;;;;;4992701;28;19930;-67
2022/01/26 03:47:01;;;;;;;;;;;;;;;;;;4992307;28;19932;-67
2022/01/26 03:49:28;;;;;;;;;;;;;;;;;;4991033;28;19926;-67
2022/01/26 03:51:55;;;;;;;;;;;;;;;;;;4994628;28;19930;-67
2022/01/26 03:54:23;;;;;;;;;;;;;;;;;;4991229;28;19930;-67
2022/01/26 03:56:50;;;;;;;;;;;;;;;;;;4990722;28;19987;-67
2022/01/26 03:59:17;;;;;;;;;;;;;;;;;;4988255;28;19925;-68
2022/01/26 04:01:44;;;;;;;;;;;;;;;;;;4994577;28;19926;-68
2022/01/26 04:04:11;;;;;;;;;;;;;;;;;;4992013;28;19932;-68
2022/01/26 04:06:38;;;;;;;;;;;;;;;;;;4982156;28;19950;-69
2022/01/26 04:09:05;;;;;;;;;;;;;;;;;;4994453;28;19925;-69
2022/01/26 04:11:36;;;;;;;;;;;;;;;;;;4994836;28;19949;-69
2022/01/26 04:14:04;;;;;;;;;;;;;;;;;;4991478;28;20321;-68
2022/01/26 04:16:31;;;;;;;;;;;;;;;;;;4993580;28;19926;-68
2022/01/26 04:18:58;;;;;;;;;;;;;;;;;;4987218;28;20020;-69
2022/01/26 04:21:34;;;;;;;;;;;;;;;;;;4989232;28;19932;-68
2022/01/26 04:24:05;;;;;;;;;;;;;;;;;;4987298;28;20005;-68
2022/01/26 04:26:38;;;;;;;;;;;;;;;;;;4983111;28;19961;-68
2022/01/26 04:29:09;;;;;;;;;;;;;;;;;;4993266;28;20283;-68
2022/01/26 04:31:36;;;;;;;;;;;;;;;;;;4992058;28;20307;-69
2022/01/26 04:34:03;;;;;;;;;;;;;;;;;;4993440;28;19955;-69
2022/01/26 04:36:35;;;;;;;;;;;;;;;;;;4991355;28;20265;-69
2022/01/26 04:39:07;;;;;;;;;;;;;;;;;;4991750;28;19961;-69
2022/01/26 04:41:39;;;;;;;;;;;;;;;;;;4993710;28;19926;-68
2022/01/26 04:44:10;;;;;;;;;;;;;;;;;;4992323;28;20366;-68
2022/01/26 04:46:37;;;;;;;;;;;;;;;;;;4985249;28;19933;-69
2022/01/26 04:49:04;;;;;;;;;;;;;;;;;;4994668;28;19926;-69
2022/01/26 04:51:31;;;;;;;;;;;;;;;;;;4991941;28;19933;-67
2022/01/26 04:53:58;;;;;;;;;;;;;;;;;;4989677;28;19929;-68
2022/01/26 04:56:25;;;;;;;;;;;;;;;;;;4986935;28;19929;-69
2022/01/26 04:58:52;;;;;;;;;;;;;;;;;;4985212;28;19953;-68
2022/01/26 05:01:19;;;;;;;;;;;;;;;;;;4993018;28;19925;-69
2022/01/26 05:03:46;;;;;;;;;;;;;;;;;;4994251;28;20320;-68
2022/01/26 05:06:13;;;;;;;;;;;;;;;;;;4987231;28;20323;-68
2022/01/26 05:08:40;;;;;;;;;;;;;;;;;;4990291;28;19932;-68
2022/01/26 05:11:10;;;;;;;;;;;;;;;;;;4990586;28;19930;-68
2022/01/26 05:13:37;;;;;;;;;;;;;;;;;;4988907;28;19933;-68
2022/01/26 05:16:06;;;;;;;;;;;;;;;;;;4988292;28;20306;-68
2022/01/26 05:18:33;;;;;;;;;;;;;;;;;;4980184;28;20344;-68
2022/01/26 05:21:00;;;;;;;;;;;;;;;;;;4989945;28;19930;-69
2022/01/26 05:23:27;;;;;;;;;;;;;;;;;;4990472;28;19926;-68
2022/01/26 05:25:54;;;;;;;;;;;;;;;;;;4991604;28;20303;-68
2022/01/26 05:28:21;;;;;;;;;;;;;;;;;;4991098;28;19933;-69
2022/01/26 05:30:48;;;;;;;;;;;;;;;;;;4991014;28;20021;-68
2022/01/26 05:33:15;;;;;;;;;;;;;;;;;;4982335;28;19926;-68
2022/01/26 05:35:42;;;;;;;;;;;;;;;;;;4990946;28;19925;-67
2022/01/26 05:38:09;;;;;;;;;;;;;;;;;;4990659;28;19926;-69
2022/01/26 05:40:36;;;;;;;;;;;;;;;;;;4988241;28;19940;-68
2022/01/26 05:43:03;;;;;;;;;;;;;;;;;;4990461;28;19945;-68
2022/01/26 05:45:34;;;;;;;;;;;;;;;;;;4989851;28;20005;-68
2022/01/26 05:48:03;;;;;;;;;;;;;;;;;;4989142;28;19965;-68
2022/01/26 05:50:31;;;;;;;;;;;;;;;;;;4991526;28;20388;-67
2022/01/26 05:52:58;;;;;;;;;;;;;;;;;;4989474;28;19933;-68
2022/01/26 05:55:25;;;;;;;;;;;;;;;;;;4992055;28;19949;-68
2022/01/26 05:57:52;;;;;;;;;;;;;;;;;;4986473;28;20363;-68
2022/01/26 06:00:19;;;;;;;;;;;;;;;;;;4989815;28;20016;-68
2022/01/26 06:02:46;;;;;;;;;;;;;;;;;;4985101;28;19926;-67
2022/01/26 06:05:13;;;;;;;;;;;;;;;;;;4984902;28;19930;-67
2022/01/26 06:07:40;;;;;;;;;;;;;;;;;;4985195;28;19944;-67
2022/01/26 06:10:07;;;;;;;;;;;;;;;;;;4986787;28;19930;-67
2022/01/26 06:12:34;;;;;;;;;;;;;;;;;;4984062;28;19940;-68
2022/01/26 06:15:01;;;;;;;;;;;;;;;;;;4991242;28;19980;-67
2022/01/26 06:17:28;;;;;;;;;;;;;;;;;;4989355;28;20006;-67
2022/01/26 06:19:55;;;;;;;;;;;;;;;;;;4987256;28;19926;-67
2022/01/26 06:22:22;;;;;;;;;;;;;;;;;;4984782;28;20284;-69
2022/01/26 06:24:49;;;;;;;;;;;;;;;;;;4983627;28;20350;-68
2022/01/26 06:27:16;;;;;;;;;;;;;;;;;;4986965;28;19936;-68
2022/01/26 06:29:43;;;;;;;;;;;;;;;;;;4986247;28;19926;-67
2022/01/26 06:32:10;;;;;;;;;;;;;;;;;;4980648;28;20305;-67
2022/01/26 06:34:39;;;;;;;;;;;;;;;;;;4960912;28;20685;-67
2022/01/26 06:37:06;;;;;;;;;;;;;;;;;;4979488;28;19929;-67
2022/01/26 06:39:33;;;;;;;;;;;;;;;;;;4988133;28;19945;-68
2022/01/26 06:42:00;;;;;;;;;;;;;;;;;;4985255;28;20360;-67
2022/01/26 06:44:31;;;;;;;;;;;;;;;;;;4978273;28;19930;-67
2022/01/26 06:47:16;;;;;;;;;;;;;;;;;;4983679;28;20016;-67
2022/01/26 06:49:43;;;;;;;;;;;;;;;;;;4988039;28;20028;-67
2022/01/26 06:52:10;;;;;;;;;;;;;;;;;;4987478;28;19926;-67
2022/01/26 06:54:36;;;;;;;;;;;;;;;;;;4990359;28;19988;-68
2022/01/26 06:57:03;;;;;;;;;;;;;;;;;;4988556;28;19937;-67
2022/01/26 06:59:30;;;;;;;;;;;;;;;;;;4987423;28;19926;-68
2022/01/26 07:01:57;;;;;;;;;;;;;;;;;;4989194;28;19926;-68
2022/01/26 07:04:24;;;;;;;;;;;;;;;;;;4989775;28;19925;-68
2022/01/26 07:06:51;;;;;;;;;;;;;;;;;;4988035;28;19930;-66
2022/01/26 07:09:19;;;;;;;;;;;;;;;;;;4988759;28;19949;-67
2022/01/26 07:11:46;;;;;;;;;;;;;;;;;;4988388;28;20384;-68
2022/01/26 07:14:22;;;;;;;;;;;;;;;;;;4990656;28;19926;-67
2022/01/26 07:20:05;;;;;;;;;;;;;;;;;;4986559;28;20283;-67
2022/01/26 07:22:33;;;;;;;;;;;;;;;;;;4990373;28;19988;-67
2022/01/26 07:25:00;;;;;;;;;;;;;;;;;;4987976;28;19926;-68
2022/01/26 07:27:27;;;;;;;;;;;;;;;;;;4987771;28;19929;-67
2022/01/26 07:29:54;;;;;;;;;;;;;;;;;;4988998;28;19932;-67
2022/01/26 07:32:21;;;;;;;;;;;;;;;;;;4986273;28;20020;-68
2022/01/26 07:34:48;;;;;;;;;;;;;;;;;;4989446;28;19957;-68
2022/01/26 07:37:16;;;;;;;;;;;;;;;;;;4984355;28;20388;-68
2022/01/26 07:39:47;;;;;;;;;;;;;;;;;;4987169;28;19941;-68
2022/01/26 07:42:14;;;;;;;;;;;;;;;;;;4983232;28;19933;-70
2022/01/26 07:44:41;;;;;;;;;;;;;;;;;;4980063;28;19930;-70
2022/01/26 07:47:11;;;;;;;;;;;;;;;;;;4981859;28;20008;-70
2022/01/26 07:49:38;;;;;;;;;;;;;;;;;;4983342;28;19936;-70
2022/01/26 07:52:04;;;;;;;;;;;;;;;;;;4989853;28;19929;-69
2022/01/26 07:54:32;;;;;;;;;;;;;;;;;;4984937;28;19930;-69
2022/01/26 07:57:00;;;;;;;;;;;;;;;;;;4984757;28;19930;-68
2022/01/26 07:59:27;;;;;;;;;;;;;;;;;;4985088;28;19926;-70
2022/01/26 08:01:54;;;;;;;;;;;;;;;;;;4989706;28;20438;-69
2022/01/26 08:04:21;;;;;;;;;;;;;;;;;;4988242;28;19926;-69
2022/01/26 08:06:48;;;;;;;;;;;;;;;;;;4987722;28;19949;-69
2022/01/26 08:09:15;;;;;;;;;;;;;;;;;;4985588;28;20318;-69
2022/01/26 08:11:42;;;;;;;;;;;;;;;;;;4991671;28;20482;-69
2022/01/26 08:14:09;;;;;;;;;;;;;;;;;;4984837;28;19988;-69
2022/01/26 08:16:37;;;;;;;;;;;;;;;;;;4984697;28;19933;-69
2022/01/26 08:19:03;;;;;;;;;;;;;;;;;;4992633;28;19961;-69
2022/01/26 08:21:30;;;;;;;;;;;;;;;;;;4990022;28;19932;-70
2022/01/26 08:24:03;;;;;;;;;;;;;;;;;;4989154;28;20123;-69
2022/01/26 08:26:38;;;;;;;;;;;;;;;;;;4990170;28;20471;-69
2022/01/26 08:29:11;;;;;;;;;;;;;;;;;;4981558;28;19938;-70
2022/01/26 08:31:38;;;;;;;;;;;;;;;;;;4987752;28;19961;-69
2022/01/26 08:34:05;;;;;;;;;;;;;;;;;;4980276;28;19938;-69
2022/01/26 08:36:32;;;;;;;;;;;;;;;;;;4991855;28;19926;-68
2022/01/26 08:39:00;;;;;;;;;;;;;;;;;;4988517;28;19936;-69
2022/01/26 08:41:27;;;;;;;;;;;;;;;;;;4989887;28;20355;-69
2022/01/26 08:43:54;;;;;;;;;;;;;;;;;;4990000;28;19926;-69
2022/01/26 08:46:21;;;;;;;;;;;;;;;;;;4983214;28;20012;-69
2022/01/26 08:48:47;;;;;;;;;;;;;;;;;;4989152;28;19969;-69
2022/01/26 08:51:14;;;;;;;;;;;;;;;;;;4993268;28;20308;-69
2022/01/26 08:53:41;;;;;;;;;;;;;;;;;;4992584;28;19949;-69
2022/01/26 08:56:08;;;;;;;;;;;;;;;;;;4987888;28;20367;-71
2022/01/26 08:58:35;;;;;;;;;;;;;;;;;;4984717;28;20096;-68
2022/01/26 09:01:02;;;;;;;;;;;;;;;;;;4985972;28;19934;-68
2022/01/26 09:03:30;;;;;;;;;;;;;;;;;;4983384;28;20334;-70
2022/01/26 09:05:57;;;;;;;;;;;;;;;;;;4976208;28;19934;-69
2022/01/26 09:08:26;;;;;;;;;;;;;;;;;;4982941;28;19926;-68
2022/01/26 09:10:57;;;;;;;;;;;;;;;;;;4983313;28;20461;-68
2022/01/26 09:13:25;;;;;;;;;;;;;;;;;;4982007;28;20373;-70
2022/01/26 09:15:53;;;;;;;;;;;;;;;;;;4986142;28;19926;-69
2022/01/26 09:18:30;;;;;;;;;;;;;;;;;;4979366;28;20479;-71
2022/01/26 09:20:57;;;;;;;;;;;;;;;;;;4982607;28;19964;-70
2022/01/26 09:23:24;;;;;;;;;;;;;;;;;;4981678;28;19934;-69
2022/01/26 09:25:51;;;;;;;;;;;;;;;;;;4987771;28;19926;-71
2022/01/26 09:28:18;;;;;;;;;;;;;;;;;;4984639;28;20009;-70
2022/01/26 09:30:45;;;;;;;;;;;;;;;;;;4983007;28;20388;-70
2022/01/26 09:33:12;;;;;;;;;;;;;;;;;;4982929;28;19933;-68
2022/01/26 09:35:39;;;;;;;;;;;;;;;;;;4983364;28;19933;-68
2022/01/26 09:38:06;;;;;;;;;;;;;;;;;;4982815;28;20021;-68
2022/01/26 09:40:33;;;;;;;;;;;;;;;;;;4982180;28;19932;-68
2022/01/26 09:43:00;;;;;;;;;;;;;;;;;;4981390;28;20033;-69
2022/01/26 09:45:29;;;;;;;;;;;;;;;;;;4987758;28;20315;-70
2022/01/26 09:47:56;;;;;;;;;;;;;;;;;;4974467;28;20442;-70
2022/01/26 09:50:23;;;;;;;;;;;;;;;;;;4980780;28;20024;-70
2022/01/26 09:52:50;;;;;;;;;;;;;;;;;;4979891;28;19934;-70
2022/01/26 09:55:17;;;;;;;;;;;;;;;;;;4985661;28;19976;-69
2022/01/26 09:57:44;;;;;;;;;;;;;;;;;;4981859;28;20048;-70
2022/01/26 10:00:11;;;;;;;;;;;;;;;;;;4979415;28;19941;-69
2022/01/26 10:02:39;;;;;;;;;;;;;;;;;;4981650;28;19930;-69
2022/01/26 10:05:07;;;;;;;;;;;;;;;;;;4982321;28;20036;-69
2022/01/26 10:07:47;;;;;;;;;;;;;;;;;;4984088;28;19934;-68
2022/01/26 10:15:49;;;;;;;;;;;;;;;;;;4983346;28;20016;-68
2022/01/26 10:18:17;;;;;;;;;;;;;;;;;;4978891;28;20396;-69
2022/01/26 10:20:43;;;;;;;;;;;;;;;;;;4973924;28;19975;-69
2022/01/26 10:23:13;;;;;;;;;;;;;;;;;;4982290;28;20045;-69
2022/01/26 10:25:39;;;;;;;;;;;;;;;;;;4979777;28;20364;-69
2022/01/26 10:28:09;;;;;;;;;;;;;;;;;;4981677;28;19926;-70
2022/01/26 10:30:36;;;;;;;;;;;;;;;;;;4983614;28;19941;-70
2022/01/26 10:33:03;;;;;;;;;;;;;;;;;;4983274;28;19925;-70
2022/01/26 10:35:30;;;;;;;;;;;;;;;;;;4986901;28;20004;-68
2022/01/26 10:37:57;;;;;;;;;;;;;;;;;;4985463;28;19936;-69
2022/01/26 10:40:25;;;;;;;;;;;;;;;;;;4982602;28;19926;-68
2022/01/26 10:42:52;;;;;;;;;;;;;;;;;;4986838;28;20391;-68
2022/01/26 10:45:20;;;;;;;;;;;;;;;;;;4981808;28;20031;-69
2022/01/26 10:47:47;;;;;;;;;;;;;;;;;;4982326;28;20037;-68
2022/01/26 10:50:31;;;;;;;;;;;;;;;;;;4973352;28;19926;-69
2022/01/26 10:52:58;;;;;;;;;;;;;;;;;;4986897;28;19926;-70
2022/01/26 10:55:25;;;;;;;;;;;;;;;;;;4984087;28;19926;-69
2022/01/26 10:57:52;;;;;;;;;;;;;;;;;;4978678;28;19926;-68
2022/01/26 11:00:19;;;;;;;;;;;;;;;;;;4981946;28;19932;-68
2022/01/26 11:02:48;;;;;;;;;;;;;;;;;;4985561;28;20439;-68
2022/01/26 11:05:16;;;;;;;;;;;;;;;;;;4988522;28;20442;-68
2022/01/26 11:07:43;;;;;;;;;;;;;;;;;;4986169;28;19926;-70
2022/01/26 11:10:11;;;;;;;;;;;;;;;;;;4982987;28;20161;-70
2022/01/26 11:12:38;;;;;;;;;;;;;;;;;;4987451;28;19937;-68
2022/01/26 11:15:05;;;;;;;;;;;;;;;;;;4985794;28;19937;-70
2022/01/26 11:17:34;;;;;;;;;;;;;;;;;;4985262;28;19933;-68
2022/01/26 11:20:02;;;;;;;;;;;;;;;;;;4983935;28;19930;-71
2022/01/26 11:22:31;;;;;;;;;;;;;;;;;;4985157;28;19926;-68
2022/01/26 11:24:58;;;;;;;;;;;;;;;;;;4986725;28;19932;-69
2022/01/26 11:27:25;;;;;;;;;;;;;;;;;;4987770;28;20013;-68
2022/01/26 11:29:55;;;;;;;;;;;;;;;;;;4984716;28;19926;-68
2022/01/26 11:32:27;;;;;;;;;;;;;;;;;;4986156;28;19926;-72
2022/01/26 11:34:54;;;;;;;;;;;;;;;;;;4984650;28;19934;-71
2022/01/26 11:37:21;;;;;;;;;;;;;;;;;;4987860;28;19932;-68
2022/01/26 11:45:04;;;;;;;;;;;;;;;;;;4989537;28;20481;-68
2022/01/26 11:45:24;;;;;;;;;;;;;;;;;;4987433;28;20376;-69
2022/01/26 11:47:51;;;;;;;;;;;;;;;;;;4985879;28;19922;-71
2022/01/26 11:50:18;;;;;;;;;;;;;;;;;;4978962;28;19929;-68
2022/01/26 11:52:45;;;;;;;;;;;;;;;;;;4987191;28;19964;-71
2022/01/26 11:55:12;;;;;;;;;;;;;;;;;;4988416;28;20016;-69
2022/01/26 11:57:39;;;;;;;;;;;;;;;;;;4985764;28;19929;-71
2022/01/26 12:00:09;;;;;;;;;;;;;;;;;;4985686;28;19929;-69
2022/01/26 12:02:44;;;;;;;;;;;;;;;;;;4985883;28;20392;-70
2022/01/26 12:05:13;;;;;;;;;;;;;;;;;;4971013;28;19989;-69
2022/01/26 12:07:40;;;;;;;;;;;;;;;;;;4983029;28;19929;-67
2022/01/26 12:10:07;;;;;;;;;;;;;;;;;;4987990;28;19926;-70
2022/01/26 12:12:35;;;;;;;;;;;;;;;;;;4987082;28;19945;-70
2022/01/26 12:15:02;;;;;;;;;;;;;;;;;;4981833;28;19937;-69
2022/01/26 12:17:34;;;;;;;;;;;;;;;;;;4985280;28;19926;-68
2022/01/26 12:31:58;;;;;;;;;;;;;;;;;;4984949;28;19938;-69
2022/01/26 12:34:19;;;;;;;;;;;;;;;;;;4986749;28;19929;-69
2022/01/26 12:36:58;;;;;;;;;;;;;;;;;;4989193;28;19930;-69
2022/01/26 12:42:07;;;;;;;;;;;;;;;;;;4987241;28;19929;-69
2022/01/26 12:44:34;;;;;;;;;;;;;;;;;;4987140;28;19977;-69
2022/01/26 12:47:01;;;;;;;;;;;;;;;;;;4989095;28;19945;-70
2022/01/26 12:49:28;;;;;;;;;;;;;;;;;;4986943;28;19952;-68
2022/01/26 12:51:55;;;;;;;;;;;;;;;;;;4980853;28;19930;-68
2022/01/26 12:54:22;;;;;;;;;;;;;;;;;;4986636;28;20389;-72
2022/01/26 12:56:49;;;;;;;;;;;;;;;;;;4985698;28;19930;-68
2022/01/26 12:59:17;;;;;;;;;;;;;;;;;;4978986;28;19936;-68
2022/01/26 13:01:44;;;;;;;;;;;;;;;;;;4982223;28;19930;-72
2022/01/26 13:04:11;;;;;;;;;;;;;;;;;;4971441;28;19933;-69
2022/01/26 13:06:38;;;;;;;;;;;;;;;;;;4978154;28;20417;-70
2022/01/26 13:09:05;;;;;;;;;;;;;;;;;;4988076;28;19925;-69
2022/01/26 13:11:32;;;;;;;;;;;;;;;;;;4984593;28;19926;-68
2022/01/26 13:13:59;;;;;;;;;;;;;;;;;;4984152;28;19925;-70
2022/01/26 13:16:33;;;;;;;;;;;;;;;;;;4989039;28;20017;-71
2022/01/26 13:35:49;;;;;;;;;;;;;;;;;;4983120;28;19969;-71
2022/01/26 13:38:34;;;;;;;;;;;;;;;;;;4981989;28;19926;-70
2022/01/26 13:41:09;;;;;;;;;;;;;;;;;;4973459;28;19992;-70
2022/01/26 13:49:19;;;;;;;;;;;;;;;;;;4966819;28;19936;-71
2022/01/26 13:52:00;;;;;;;;;;;;;;;;;;4965891;28;19944;-72
2022/01/26 13:54:47;;;;;;;;;;;;;;;;;;4969781;28;19926;-71
2022/01/26 13:57:39;;;;;;;;;;;;;;;;;;4974010;28;20009;-71
2022/01/26 14:00:05;;;;;;;;;;;;;;;;;;4969463;28;19992;-73
2022/01/26 14:02:34;;;;;;;;;;;;;;;;;;4976734;28;19933;-74
2022/01/26 14:05:01;;;;;;;;;;;;;;;;;;4977838;28;20009;-72
2022/01/26 14:07:28;;;;;;;;;;;;;;;;;;4971896;28;19926;-73
2022/01/26 14:09:55;;;;;;;;;;;;;;;;;;4970542;28;20328;-72
2022/01/26 14:12:27;;;;;;;;;;;;;;;;;;4970416;28;19933;-72
2022/01/26 14:14:56;;;;;;;;;;;;;;;;;;4969775;28;20179;-71
2022/01/26 14:17:34;;;;;;;;;;;;;;;;;;4966989;28;20341;-72
2022/01/26 14:20:17;;;;;;;;;;;;;;;;;;4964386;28;19937;-72
2022/01/26 14:23:02;;;;;;;;;;;;;;;;;;4973154;28;20000;-72
2022/01/26 14:25:31;;;;;;;;;;;;;;;;;;4969785;28;19934;-73
2022/01/26 14:28:03;;;;;;;;;;;;;;;;;;4969925;28;19973;-73
2022/01/26 14:30:46;;;;;;;;;;;;;;;;;;4968361;28;20400;-73
2022/01/26 14:33:37;;;;;;;;;;;;;;;;;;4972201;28;19926;-73
2022/01/26 14:36:23;;;;;;;;;;;;;;;;;;4970595;28;20397;-73
2022/01/26 14:55:40;;;;;;;;;;;;;;;;;;4971100;28;19926;-71
2022/01/26 15:09:45;;;;;;;;;;;;;;;;;;4975512;28;19957;-72
2022/01/26 15:19:00;;;;;;;;;;;;;;;;;;4975119;28;20447;-72
2022/01/26 15:42:41;;;;;;;;;;;;;;;;;;4974902;28;19916;-72
2022/01/26 15:50:44;;;;;;;;;;;;;;;;;;4966832;28;20292;-72
2022/01/26 15:53:18;;;;;;;;;;;;;;;;;;4963441;28;19932;-70
2022/01/26 15:58:45;;;;;;;;;;;;;;;;;;4965584;28;20149;-71
2022/01/26 16:06:57;;;;;;;;;;;;;;;;;;4968240;28;20039;-74
2022/01/26 16:20:48;;;;;;;;;;;;;;;;;;4963016;28;20020;-72
2022/01/26 17:46:39;;;;;;;;;;;;;;;;;;4965838;28;19921;-72
2022/01/26 18:17:18;;;;;;;;;;;;;;;;;;5115790;27;19919;-72
2022/01/26 18:39:14;;;;;;;;;;;;;;;;;;5105296;28;19923;-71
2022/01/26 18:49:54;;;;;;;;;;;;;;;;;;5111512;28;19958;-71
2022/01/26 18:52:22;;;;;;;;;;;;;;;;;;5111587;27;19997;-72
2022/01/26 18:54:49;;;;;;;;;;;;;;;;;;5115848;28;19923;-73
2022/01/26 18:57:16;;;;;;;;;;;;;;;;;;5109826;28;19924;-73
2022/01/26 18:59:45;;;;;;;;;;;;;;;;;;5109313;28;19930;-71
2022/01/26 19:02:12;;;;;;;;;;;;;;;;;;5110549;28;19931;-71
2022/01/26 19:04:43;;;;;;;;;;;;;;;;;;5115469;27;19931;-70
2022/01/26 19:07:11;;;;;;;;;;;;;;;;;;5109694;28;19927;-70
2022/01/26 19:09:42;;;;;;;;;;;;;;;;;;5096663;28;19929;-73
2022/01/26 19:12:11;;;;;;;;;;;;;;;;;;5116775;28;20077;-73
2022/01/26 19:14:42;;;;;;;;;;;;;;;;;;5102921;28;19924;-73
2022/01/26 19:17:13;;;;;;;;;;;;;;;;;;5106684;28;19931;-73
2022/01/26 19:19:48;;;;;;;;;;;;;;;;;;5109985;28;20402;-72
2022/01/26 19:25:08;;;;;;;;;;;;;;;;;;5109716;28;19923;-71
2022/01/26 19:27:47;;;;;;;;;;;;;;;;;;5095659;28;19949;-72
2022/01/26 19:40:17;;;;;;;;;;;;;;;;;;5005334;28;20429;-72
2022/01/26 19:44:40;;;;;;;;;;;;;;;;;;5078252;28;20305;-72
2022/01/26 19:52:35;;;;;;;;;;;;;;;;;;5071327;28;19919;-71
2022/01/26 19:55:03;;;;;;;;;;;;;;;;;;5072393;28;20500;-73
2022/01/26 19:57:32;;;;;;;;;;;;;;;;;;5083181;28;19924;-73
2022/01/26 19:59:59;;;;;;;;;;;;;;;;;;5077378;28;19936;-72
2022/01/26 20:02:26;;;;;;;;;;;;;;;;;;5083343;28;19932;-72
2022/01/26 20:04:54;;;;;;;;;;;;;;;;;;5078332;28;20282;-74
2022/01/26 20:07:27;;;;;;;;;;;;;;;;;;5089767;28;19928;-73
2022/01/26 20:09:57;;;;;;;;;;;;;;;;;;5083045;28;19932;-73
2022/01/26 20:12:34;;;;;;;;;;;;;;;;;;5097766;28;20035;-73
2022/01/26 20:15:01;;;;;;;;;;;;;;;;;;5080986;28;19928;-74
2022/01/26 20:17:28;;;;;;;;;;;;;;;;;;5094073;28;19947;-72
2022/01/26 20:19:56;;;;;;;;;;;;;;;;;;5089240;28;20396;-72
2022/01/26 20:25:36;;;;;;;;;;;;;;;;;;5057833;28;19971;-75
2022/01/26 20:33:58;;;;;;;;;;;;;;;;;;5072986;28;19924;-73
2022/01/26 20:39:19;;;;;;;;;;;;;;;;;;5077763;28;19924;-73
2022/01/26 20:41:47;;;;;;;;;;;;;;;;;;5084135;28;19928;-73
2022/01/26 20:44:14;;;;;;;;;;;;;;;;;;5089719;28;19931;-73
2022/01/26 20:46:41;;;;;;;;;;;;;;;;;;5076002;28;19928;-73
2022/01/26 20:49:08;;;;;;;;;;;;;;;;;;5076413;28;19924;-73
2022/01/26 20:51:36;;;;;;;;;;;;;;;;;;5072937;28;19943;-74
2022/01/26 20:54:03;;;;;;;;;;;;;;;;;;5076594;28;19985;-74
2022/01/26 20:56:30;;;;;;;;;;;;;;;;;;5076553;28;20019;-73
2022/01/26 20:58:59;;;;;;;;;;;;;;;;;;5084303;28;19924;-74
2022/01/26 21:01:26;;;;;;;;;;;;;;;;;;5088338;28;19928;-74
2022/01/26 21:03:54;;;;;;;;;;;;;;;;;;5088504;28;20010;-74
2022/01/26 21:06:21;;;;;;;;;;;;;;;;;;5085635;28;19928;-74
2022/01/26 21:08:49;;;;;;;;;;;;;;;;;;5088173;28;19986;-74
2022/01/26 21:11:16;;;;;;;;;;;;;;;;;;5085567;28;20556;-73
2022/01/26 21:13:48;;;;;;;;;;;;;;;;;;5088375;28;20302;-73
2022/01/26 21:16:16;;;;;;;;;;;;;;;;;;5093174;28;19923;-72
2022/01/26 21:18:43;;;;;;;;;;;;;;;;;;5081611;28;19924;-73
2022/01/26 21:21:10;;;;;;;;;;;;;;;;;;5087124;28;20310;-71
2022/01/26 21:23:38;;;;;;;;;;;;;;;;;;5093167;28;19932;-73
2022/01/26 21:26:06;;;;;;;;;;;;;;;;;;5083601;28;19924;-73
2022/01/26 21:28:33;;;;;;;;;;;;;;;;;;5080458;28;19924;-72
2022/01/26 21:31:01;;;;;;;;;;;;;;;;;;5080869;28;20081;-71
2022/01/26 21:33:28;;;;;;;;;;;;;;;;;;5088842;28;20955;-74
2022/01/26 21:35:55;;;;;;;;;;;;;;;;;;5082017;28;20542;-72
2022/01/26 21:38:23;;;;;;;;;;;;;;;;;;5082921;28;19924;-73
2022/01/26 21:40:50;;;;;;;;;;;;;;;;;;5084532;28;19927;-73
2022/01/26 21:43:18;;;;;;;;;;;;;;;;;;5084485;28;19931;-73
2022/01/26 21:45:45;;;;;;;;;;;;;;;;;;5070381;28;20381;-73
2022/01/26 21:48:12;;;;;;;;;;;;;;;;;;5076350;28;19935;-72
2022/01/26 21:50:40;;;;;;;;;;;;;;;;;;5075084;28;21608;-73
2022/01/26 21:53:08;;;;;;;;;;;;;;;;;;5071988;28;20023;-72
2022/01/26 21:55:35;;;;;;;;;;;;;;;;;;5082345;28;19931;-73
2022/01/26 21:58:02;;;;;;;;;;;;;;;;;;5078371;28;19929;-73
2022/01/26 22:00:29;;;;;;;;;;;;;;;;;;5085704;28;19930;-73
2022/01/26 22:03:01;;;;;;;;;;;;;;;;;;5087675;28;19993;-73
2022/01/26 22:05:28;;;;;;;;;;;;;;;;;;5084523;28;20378;-74
2022/01/26 22:07:55;;;;;;;;;;;;;;;;;;5085404;28;19924;-74
2022/01/26 22:10:23;;;;;;;;;;;;;;;;;;5080383;28;19978;-74
2022/01/26 22:12:51;;;;;;;;;;;;;;;;;;5083366;28;19978;-73
2022/01/26 22:15:18;;;;;;;;;;;;;;;;;;5081325;28;20385;-73
2022/01/26 22:17:45;;;;;;;;;;;;;;;;;;5080860;28;19928;-73
2022/01/26 22:20:12;;;;;;;;;;;;;;;;;;5077546;28;20008;-73
2022/01/26 22:22:39;;;;;;;;;;;;;;;;;;5082777;28;20389;-73
2022/01/26 22:25:06;;;;;;;;;;;;;;;;;;5085203;28;20377;-73
2022/01/26 22:27:37;;;;;;;;;;;;;;;;;;5083080;28;20019;-73
2022/01/26 22:30:06;;;;;;;;;;;;;;;;;;5076581;28;19931;-73
2022/01/26 22:32:33;;;;;;;;;;;;;;;;;;5087536;28;19931;-73
2022/01/26 22:35:00;;;;;;;;;;;;;;;;;;5081008;28;20019;-73
2022/01/26 22:37:27;;;;;;;;;;;;;;;;;;5075718;28;19982;-73
2022/01/26 22:39:55;;;;;;;;;;;;;;;;;;5081519;28;20572;-73
2022/01/26 22:42:22;;;;;;;;;;;;;;;;;;5080931;28;19925;-73
2022/01/26 22:44:49;;;;;;;;;;;;;;;;;;5078471;28;19970;-73
2022/01/26 22:47:16;;;;;;;;;;;;;;;;;;5078366;28;20011;-73
2022/01/26 22:49:43;;;;;;;;;;;;;;;;;;5074885;28;19924;-73
2022/01/26 22:52:10;;;;;;;;;;;;;;;;;;5085995;28;19924;-73
2022/01/26 22:54:37;;;;;;;;;;;;;;;;;;5079935;28;19924;-73
2022/01/26 22:57:04;;;;;;;;;;;;;;;;;;5078564;28;19929;-73
2022/01/26 22:59:31;;;;;;;;;;;;;;;;;;5078343;28;19985;-73
2022/01/26 23:05:02;;;;;;;;;;;;;;;;;;5064543;28;19920;-72